createdAt,value
2022-11-04T00:00:32.594Z,23.67
2022-11-04T00:03:01.711Z,22.92
2022-11-04T00:05:32.298Z,29.40
2022-11-04T00:08:21.930Z,25.13
2022-11-04T00:11:13.589Z,32.42
2022-11-04T00:13:42.885Z,29.50
2022-11-04T00:16:29.613Z,26.52
2022-11-04T00:18:59.066Z,24.67
2022-11-04T00:21:47.018Z,22.65
2022-11-04T00:27:22.586Z,24.52
2022-11-04T00:29:51.722Z,24.30
2022-11-04T00:32:38.275Z,23.83
2022-11-04T00:35:08.672Z,22.52
2022-11-04T00:37:40.339Z,21.95
2022-11-04T00:40:12.435Z,22.52
2022-11-04T00:42:43.746Z,21.60
2022-11-04T00:45:13.158Z,21.23
2022-11-04T00:47:42.298Z,22.35
2022-11-04T00:50:11.614Z,21.05
2022-11-04T00:52:42.582Z,22.73
2022-11-04T00:55:12.022Z,21.48
2022-11-04T00:57:41.012Z,23.02
2022-11-04T01:00:14.182Z,22.98
2022-11-04T01:02:43.354Z,24.25
2022-11-04T01:05:12.468Z,27.83
2022-11-04T01:07:43.896Z,24.02
2022-11-04T01:10:13.429Z,28.88
2022-11-04T01:12:42.476Z,29.83
2022-11-04T01:15:12.425Z,28.23
2022-11-04T01:17:41.572Z,27.38
2022-11-04T01:20:13.399Z,25.50
2022-11-04T01:22:44.038Z,25.80
2022-11-04T01:25:13.058Z,24.42
2022-11-04T01:27:42.115Z,24.70
2022-11-04T01:30:13.213Z,22.35
2022-11-04T01:32:42.330Z,21.10
2022-11-04T01:35:11.834Z,20.85
2022-11-04T01:37:40.847Z,19.58
2022-11-04T01:40:12.651Z,19.65
2022-11-04T01:42:41.708Z,21.65
2022-11-04T01:45:15.975Z,19.95
2022-11-04T01:47:51.577Z,22.60
2022-11-04T01:50:25.763Z,21.17
2022-11-04T01:52:58.290Z,22.90
2022-11-04T01:55:34.654Z,23.52
2022-11-04T01:58:08.339Z,22.60
2022-11-04T02:00:39.813Z,26.40
2022-11-04T02:03:13.859Z,23.73
2022-11-04T02:05:43.995Z,26.63
2022-11-04T02:08:15.237Z,28.27
2022-11-04T02:10:51.862Z,28.50
2022-11-04T02:13:20.177Z,28.93
2022-11-04T02:15:58.541Z,30.10
2022-11-04T02:18:52.205Z,29.02
2022-11-04T02:22:09.279Z,29.58
2022-11-04T02:25:04.105Z,29.42
2022-11-04T02:27:52.348Z,30.10
2022-11-04T02:30:23.870Z,27.80
2022-11-04T02:33:20.877Z,27.70
2022-11-04T02:36:01.355Z,27.98
2022-11-04T02:38:39.117Z,25.40
2022-11-04T02:41:18.176Z,23.60
2022-11-04T02:43:58.961Z,23.90
2022-11-04T02:46:36.468Z,23.77
2022-11-04T02:49:15.673Z,22.42
2022-11-04T02:51:51.920Z,23.30
2022-11-04T02:54:27.098Z,23.88
2022-11-04T02:57:00.703Z,24.08
2022-11-04T02:59:43.340Z,23.60
2022-11-04T03:02:20.129Z,23.27
2022-11-04T03:04:53.594Z,23.05
2022-11-04T03:07:30.003Z,24.67
2022-11-04T03:10:06.299Z,26.00
2022-11-04T03:12:43.712Z,26.60
2022-11-04T03:17:53.923Z,27.33
2022-11-04T03:22:59.789Z,27.17
2022-11-04T03:25:34.651Z,29.50
2022-11-04T03:28:13.636Z,27.45
2022-11-04T03:30:47.506Z,26.00
2022-11-04T03:33:25.598Z,30.35
2022-11-04T03:35:54.783Z,25.83
2022-11-04T03:38:24.823Z,26.05
2022-11-04T03:40:53.883Z,26.52
2022-11-04T03:43:27.795Z,26.55
2022-11-04T03:45:57.582Z,24.83
2022-11-04T03:48:28.189Z,25.85
2022-11-04T03:50:57.315Z,28.17
2022-11-04T03:53:28.479Z,26.85
2022-11-04T03:56:39.826Z,26.58
2022-11-04T03:59:32.252Z,26.83
2022-11-04T04:02:11.200Z,25.27
2022-11-04T04:04:50.016Z,26.10
2022-11-04T04:07:25.555Z,27.42
2022-11-04T04:10:02.772Z,27.80
2022-11-04T04:12:39.365Z,26.30
2022-11-04T04:15:15.645Z,28.63
2022-11-04T04:17:52.108Z,25.30
2022-11-04T04:20:27.644Z,28.00
2022-11-04T04:23:02.565Z,23.75
2022-11-04T04:25:51.331Z,22.55
2022-11-04T04:28:21.791Z,22.00
2022-11-04T04:30:55.177Z,23.80
2022-11-04T04:33:26.791Z,22.40
2022-11-04T04:35:58.850Z,24.42
2022-11-04T04:38:47.719Z,25.75
2022-11-04T04:41:39.778Z,30.45
2022-11-04T04:44:35.829Z,33.08
2022-11-04T04:47:06.903Z,26.13
2022-11-04T04:49:36.172Z,24.73
2022-11-04T04:52:09.250Z,25.17
2022-11-04T04:54:38.338Z,23.23
2022-11-04T04:57:07.411Z,23.25
2022-11-04T04:59:36.578Z,24.92
2022-11-04T05:02:05.940Z,24.10
2022-11-04T05:04:35.160Z,22.85
2022-11-04T05:07:04.373Z,22.20
2022-11-04T05:09:35.005Z,22.15
2022-11-04T05:12:04.433Z,23.83
2022-11-04T05:14:33.697Z,24.25
2022-11-04T05:17:04.763Z,25.80
2022-11-04T05:19:34.160Z,28.55
2022-11-04T05:22:05.348Z,26.45
2022-11-04T05:24:35.922Z,25.63
2022-11-04T05:27:05.118Z,25.88
2022-11-04T05:29:34.170Z,26.42
2022-11-04T05:32:03.262Z,27.45
2022-11-04T05:34:32.430Z,26.90
2022-11-04T05:37:01.546Z,24.88
2022-11-04T05:39:30.602Z,24.52
2022-11-04T05:42:01.724Z,23.67
2022-11-04T05:44:30.802Z,23.27
2022-11-04T05:46:59.827Z,23.85
2022-11-04T05:49:28.899Z,23.40
2022-11-04T05:51:58.042Z,23.80
2022-11-04T05:54:27.715Z,25.40
2022-11-04T05:56:56.789Z,24.80
2022-11-04T05:59:27.211Z,26.08
2022-11-04T06:01:56.403Z,22.75
2022-11-04T06:04:25.735Z,24.75
2022-11-04T06:06:54.867Z,21.98
2022-11-04T06:09:38.842Z,22.70
2022-11-04T06:12:11.178Z,23.70
2022-11-04T06:14:41.908Z,22.58
2022-11-04T06:17:15.749Z,21.42
2022-11-04T06:19:44.994Z,22.58
2022-11-04T06:22:19.110Z,21.17
2022-11-04T06:24:48.185Z,21.02
2022-11-04T06:27:17.208Z,21.27
2022-11-04T06:29:47.589Z,22.30
2022-11-04T06:32:19.230Z,23.98
2022-11-04T06:34:48.309Z,21.95
2022-11-04T06:37:17.314Z,25.02
2022-11-04T06:39:46.676Z,24.77
2022-11-04T06:42:15.715Z,25.70
2022-11-04T06:44:44.703Z,24.85
2022-11-04T06:47:15.132Z,23.30
2022-11-04T06:49:44.162Z,24.83
2022-11-04T06:52:13.304Z,26.10
2022-11-04T06:54:42.342Z,24.42
2022-11-04T06:57:12.597Z,23.35
2022-11-04T06:59:41.623Z,22.35
2022-11-04T07:02:13.130Z,23.58
2022-11-04T07:04:43.653Z,23.55
2022-11-04T07:07:12.821Z,22.88
2022-11-04T07:09:42.077Z,22.38
2022-11-04T07:12:11.109Z,22.45
2022-11-04T07:14:40.145Z,21.75
2022-11-04T07:17:09.295Z,21.08
2022-11-04T07:19:38.337Z,23.15
2022-11-04T07:22:09.323Z,23.83
2022-11-04T07:24:38.467Z,21.90
2022-11-04T07:27:07.845Z,22.42
2022-11-04T07:29:37.256Z,23.30
2022-11-04T07:32:07.309Z,24.40
2022-11-04T07:34:36.390Z,24.17
2022-11-04T07:37:05.484Z,25.30
2022-11-04T07:39:35.887Z,24.15
2022-11-04T07:42:05.180Z,23.75
2022-11-04T07:44:34.195Z,24.38
2022-11-04T07:47:03.290Z,24.20
2022-11-04T07:49:32.506Z,23.90
2022-11-04T07:52:01.515Z,22.77
2022-11-04T07:54:30.536Z,24.52
2022-11-04T07:57:01.016Z,24.35
2022-11-04T07:59:30.066Z,25.52
2022-11-04T08:01:59.178Z,26.25
2022-11-04T08:04:28.980Z,25.90
2022-11-04T08:06:58.006Z,25.48
2022-11-04T08:09:27.343Z,27.88
2022-11-04T08:11:56.420Z,27.23
2022-11-04T08:14:28.687Z,28.23
2022-11-04T08:16:58.086Z,27.73
2022-11-04T08:19:27.723Z,29.38
2022-11-04T08:21:56.773Z,28.65
2022-11-04T08:24:26.327Z,28.70
2022-11-04T08:26:55.389Z,30.05
2022-11-04T08:29:29.179Z,30.63
2022-11-04T08:31:58.246Z,29.27
2022-11-04T08:34:27.384Z,29.98
2022-11-04T08:36:57.615Z,30.17
2022-11-04T08:39:27.037Z,31.85
2022-11-04T08:41:57.276Z,32.78
2022-11-04T08:44:26.658Z,33.35
2022-11-04T08:46:57.416Z,31.50
2022-11-04T08:49:26.574Z,33.58
2022-11-04T08:51:57.567Z,35.42
2022-11-04T08:54:28.225Z,35.33
2022-11-04T08:56:57.546Z,37.83
2022-11-04T08:59:26.603Z,37.40
2022-11-04T09:01:57.387Z,34.55
2022-11-04T09:04:26.502Z,35.17
2022-11-04T09:06:56.422Z,36.35
2022-11-04T09:09:25.492Z,35.10
2022-11-04T09:11:55.174Z,37.85
2022-11-04T09:14:24.626Z,34.40
2022-11-04T09:16:54.174Z,36.45
2022-11-04T09:19:24.662Z,34.97
2022-11-04T09:21:53.741Z,37.53
2022-11-04T09:24:22.849Z,34.85
2022-11-04T09:26:51.928Z,34.38
2022-11-04T09:29:20.974Z,35.55
2022-11-04T09:31:50.355Z,35.63
2022-11-04T09:34:20.046Z,34.38
2022-11-04T09:36:50.569Z,35.53
2022-11-04T09:39:19.674Z,32.95
2022-11-04T09:42:00.943Z,35.38
2022-11-04T09:45:19.440Z,35.75
2022-11-04T09:47:41.735Z,35.03
2022-11-04T09:50:20.378Z,35.05
2022-11-04T09:52:56.501Z,34.67
2022-11-04T09:55:32.300Z,36.10
2022-11-04T09:58:01.775Z,35.83
2022-11-04T10:00:36.689Z,35.72
2022-11-04T10:03:22.661Z,34.33
2022-11-04T10:06:09.333Z,35.63
2022-11-04T10:09:03.653Z,35.67
2022-11-04T10:11:41.384Z,34.28
2022-11-04T10:14:36.307Z,34.47
2022-11-04T10:17:18.959Z,36.53
2022-11-04T10:20:03.016Z,34.35
2022-11-04T10:22:35.481Z,34.85
2022-11-04T10:25:15.091Z,35.05
2022-11-04T10:27:48.383Z,35.03
2022-11-04T10:30:21.063Z,34.97
2022-11-04T10:33:07.084Z,34.53
2022-11-04T10:35:41.011Z,35.30
2022-11-04T10:38:20.548Z,37.90
2022-11-04T10:40:53.822Z,36.75
2022-11-04T10:43:32.717Z,37.05
2022-11-04T10:46:16.854Z,34.13
2022-11-04T10:48:52.983Z,35.95
2022-11-04T10:51:23.918Z,34.58
2022-11-04T10:53:57.782Z,35.38
2022-11-04T10:56:39.596Z,34.58
2022-11-04T10:59:24.532Z,35.67
2022-11-04T11:01:56.310Z,33.88
2022-11-04T11:04:31.662Z,34.17
2022-11-04T11:07:03.454Z,33.83
2022-11-04T11:09:34.897Z,33.92
2022-11-04T11:12:49.600Z,33.60
2022-11-04T11:15:30.082Z,33.33
2022-11-04T11:18:04.637Z,33.20
2022-11-04T11:20:37.602Z,34.67
2022-11-04T11:23:10.307Z,34.55
2022-11-04T11:25:45.378Z,33.25
2022-11-04T11:28:25.526Z,33.03
2022-11-04T11:31:01.455Z,33.42
2022-11-04T11:33:32.798Z,31.25
2022-11-04T11:36:06.912Z,31.25
2022-11-04T11:38:36.646Z,28.67
2022-11-04T11:41:24.502Z,28.85
2022-11-04T11:43:58.096Z,29.90
2022-11-04T11:46:30.067Z,29.88
2022-11-04T11:49:02.309Z,29.58
2022-11-04T11:51:35.091Z,26.67
2022-11-04T11:54:23.803Z,26.67
2022-11-04T12:02:55.322Z,27.33
2022-11-04T12:11:59.529Z,24.90
2022-11-04T12:14:48.688Z,25.13
2022-11-04T12:17:39.612Z,26.73
2022-11-04T12:20:27.107Z,26.65
2022-11-04T12:23:06.051Z,25.88
2022-11-04T12:25:44.382Z,24.73
2022-11-04T12:28:29.392Z,27.67
2022-11-04T12:31:15.001Z,26.17
2022-11-04T12:33:56.863Z,26.33
2022-11-04T12:36:58.030Z,26.88
2022-11-04T12:39:49.686Z,24.63
2022-11-04T12:42:32.825Z,25.40
2022-11-04T12:45:21.303Z,24.05
2022-11-04T12:50:58.774Z,23.45
2022-11-04T12:54:01.327Z,24.30
2022-11-04T12:56:38.526Z,23.45
2022-11-04T12:59:33.056Z,24.85
2022-11-04T13:02:11.933Z,22.15
2022-11-04T13:04:49.486Z,22.92
2022-11-04T13:09:57.430Z,23.00
2022-11-04T13:12:32.141Z,21.25
2022-11-04T13:15:06.750Z,22.70
2022-11-04T13:17:40.786Z,22.65
2022-11-04T13:20:23.877Z,23.45
2022-11-04T13:23:03.184Z,21.50
2022-11-04T13:25:41.655Z,23.88
2022-11-04T13:28:13.577Z,22.25
2022-11-04T13:30:51.199Z,24.00
2022-11-04T13:33:31.270Z,23.48
2022-11-04T13:36:09.977Z,23.67
2022-11-04T13:38:46.954Z,22.98
2022-11-04T13:41:45.971Z,24.17
2022-11-04T13:44:21.484Z,24.20
2022-11-04T13:46:53.918Z,24.10
2022-11-04T13:49:30.757Z,24.02
2022-11-04T13:52:08.284Z,22.05
2022-11-04T13:57:17.347Z,20.45
2022-11-04T14:00:23.696Z,21.83
2022-11-04T14:02:54.084Z,20.00
2022-11-04T14:06:05.613Z,20.05
2022-11-04T14:08:35.098Z,20.95
2022-11-04T14:11:14.055Z,19.70
2022-11-04T14:14:02.387Z,19.35
2022-11-04T14:16:45.790Z,19.95
2022-11-04T14:20:00.954Z,19.65
2022-11-04T14:22:38.903Z,19.95
2022-11-04T14:25:32.908Z,19.42
2022-11-04T14:28:18.217Z,19.60
2022-11-04T14:30:51.990Z,18.88
2022-11-04T14:33:50.475Z,18.40
2022-11-04T14:36:43.802Z,18.45
2022-11-04T14:39:26.807Z,20.48
2022-11-04T14:42:00.118Z,19.48
2022-11-04T14:44:36.310Z,20.05
2022-11-04T14:47:19.223Z,21.13
2022-11-04T14:49:50.530Z,21.17
2022-11-04T14:52:27.932Z,21.60
2022-11-04T14:55:04.205Z,21.05
2022-11-04T14:57:39.278Z,21.10
2022-11-04T15:00:35.800Z,21.52
2022-11-04T15:03:57.512Z,22.10
2022-11-04T15:06:09.646Z,20.85
2022-11-04T15:08:45.840Z,17.50
2022-11-04T15:11:38.885Z,16.75
2022-11-04T15:14:18.326Z,16.02
2022-11-04T15:16:52.781Z,16.38
2022-11-04T15:19:30.542Z,15.48
2022-11-04T15:22:00.710Z,15.68
2022-11-04T15:24:31.106Z,14.43
2022-11-04T15:27:10.227Z,15.05
2022-11-04T15:29:39.416Z,15.40
2022-11-04T15:32:18.903Z,12.38
2022-11-04T15:34:48.925Z,16.30
2022-11-04T15:37:18.568Z,13.75
2022-11-04T15:39:51.207Z,11.80
2022-11-04T15:42:44.677Z,8.63
2022-11-04T15:45:38.692Z,5.05
2022-11-04T15:48:37.818Z,3.58
2022-11-04T15:51:19.794Z,2.55
2022-11-04T15:53:54.757Z,1.85
2022-11-04T15:56:27.172Z,2.22
2022-11-04T15:58:58.113Z,1.85
2022-11-04T16:01:29.442Z,1.17
2022-11-04T16:04:02.079Z,1.83
2022-11-04T16:06:37.441Z,1.33
2022-11-04T16:09:21.754Z,1.73
2022-11-04T16:12:16.370Z,2.63
2022-11-04T16:14:52.209Z,0.93
2022-11-04T16:17:22.598Z,0.82
2022-11-04T16:19:57.019Z,0.70
2022-11-04T16:22:32.471Z,0.45
2022-11-04T16:25:04.895Z,0.80
2022-11-04T16:27:36.986Z,1.13
2022-11-04T16:30:19.103Z,0.40
2022-11-04T16:32:50.049Z,0.85
2022-11-04T16:35:24.886Z,0.93
2022-11-04T16:37:56.043Z,1.25
2022-11-04T16:40:26.408Z,1.45
2022-11-04T16:42:55.666Z,1.10
2022-11-04T16:45:30.747Z,1.40
2022-11-04T16:47:59.824Z,1.27
2022-11-04T16:50:32.023Z,1.08
2022-11-04T16:53:03.723Z,1.10
2022-11-04T16:55:33.768Z,0.90
2022-11-04T16:58:05.840Z,0.80
2022-11-04T17:00:35.228Z,0.95
2022-11-04T17:03:21.796Z,0.65
2022-11-04T17:05:56.308Z,0.50
2022-11-04T17:08:26.060Z,0.77
2022-11-04T17:10:55.699Z,1.85
2022-11-04T17:13:25.266Z,1.92
2022-11-04T17:15:54.576Z,1.70
2022-11-04T17:18:23.991Z,0.98
2022-11-04T17:20:57.159Z,0.80
2022-11-04T17:23:26.561Z,1.05
2022-11-04T17:25:55.767Z,0.90
2022-11-04T17:28:24.900Z,1.13
2022-11-04T17:30:54.127Z,0.70
2022-11-04T17:33:23.287Z,1.30
2022-11-04T17:35:54.445Z,1.15
2022-11-04T17:38:23.562Z,0.95
2022-11-04T17:41:09.976Z,1.70
2022-11-04T17:43:56.399Z,1.10
2022-11-04T17:46:38.998Z,1.35
2022-11-04T17:49:13.298Z,0.98
2022-11-04T17:51:47.305Z,0.43
2022-11-04T17:54:22.326Z,1.10
2022-11-04T17:56:51.924Z,1.00
2022-11-04T17:59:21.133Z,0.70
2022-11-04T18:01:50.641Z,0.73
2022-11-04T18:04:23.165Z,0.70
2022-11-04T18:06:58.445Z,0.77
2022-11-04T18:09:30.964Z,0.60
2022-11-04T18:12:17.172Z,0.73
2022-11-04T18:14:46.383Z,0.75
2022-11-04T18:17:18.441Z,0.63
2022-11-04T18:19:48.026Z,0.80
2022-11-04T18:22:18.861Z,1.17
2022-11-04T18:24:48.163Z,0.95
2022-11-04T18:27:17.436Z,0.90
2022-11-04T18:29:46.601Z,0.95
2022-11-04T18:32:15.841Z,1.17
2022-11-04T18:34:45.041Z,1.33
2022-11-04T18:37:14.771Z,1.27
2022-11-04T18:39:45.802Z,1.67
2022-11-04T18:42:15.088Z,2.78
2022-11-04T18:44:44.214Z,4.20
2022-11-04T18:47:14.256Z,4.20
2022-11-04T18:49:43.761Z,1.90
2022-11-04T18:52:12.990Z,1.52
2022-11-04T18:54:45.602Z,2.17
2022-11-04T18:57:17.534Z,2.78
2022-11-04T18:59:48.409Z,1.00
2022-11-04T19:02:23.567Z,1.48
2022-11-04T19:04:54.065Z,1.13
2022-11-04T19:07:23.851Z,1.58
2022-11-04T19:09:55.197Z,1.50
2022-11-04T19:12:41.788Z,1.40
2022-11-04T19:15:11.554Z,1.05
2022-11-04T19:17:40.779Z,1.45
2022-11-04T19:20:12.510Z,2.15
2022-11-04T19:22:43.782Z,2.17
2022-11-04T19:25:14.963Z,2.30
2022-11-04T19:27:44.316Z,2.40
2022-11-04T19:30:14.563Z,2.17
2022-11-04T19:32:43.683Z,1.80
2022-11-04T19:35:12.734Z,2.30
2022-11-04T19:37:42.071Z,2.60
2022-11-04T19:40:13.990Z,2.83
2022-11-04T19:43:01.107Z,2.50
2022-11-04T19:45:30.314Z,4.30
2022-11-04T19:48:01.848Z,2.88
2022-11-04T19:50:31.281Z,2.50
2022-11-04T19:53:00.469Z,3.25
2022-11-04T19:55:33.108Z,2.75
2022-11-04T19:58:03.237Z,2.95
2022-11-04T20:00:33.237Z,2.85
2022-11-04T20:03:02.500Z,2.30
2022-11-04T20:05:31.786Z,1.95
2022-11-04T20:08:06.103Z,1.85
2022-11-04T20:10:39.686Z,1.75
2022-11-04T20:13:32.887Z,2.05
2022-11-04T20:16:03.130Z,2.75
2022-11-04T20:18:32.235Z,2.50
2022-11-04T20:21:04.735Z,2.40
2022-11-04T20:23:33.848Z,3.17
2022-11-04T20:26:16.238Z,3.40
2022-11-04T20:28:49.218Z,2.72
2022-11-04T20:31:26.419Z,3.67
2022-11-04T20:33:56.957Z,3.92
2022-11-04T20:36:28.896Z,3.00
2022-11-04T20:38:59.200Z,3.42
2022-11-04T20:41:30.475Z,3.30
2022-11-04T20:44:00.141Z,3.20
2022-11-04T20:46:35.012Z,3.40
2022-11-04T20:49:05.935Z,4.00
2022-11-04T20:51:41.700Z,3.40
2022-11-04T20:54:13.490Z,3.40
2022-11-04T20:56:45.567Z,3.58
2022-11-04T20:59:16.380Z,3.97
2022-11-04T21:01:48.850Z,4.32
2022-11-04T21:04:21.496Z,3.03
2022-11-04T21:06:52.784Z,3.33
2022-11-04T21:09:22.952Z,3.00
2022-11-04T21:11:54.002Z,2.50
2022-11-04T21:14:23.655Z,2.92
2022-11-04T21:16:53.852Z,2.55
2022-11-04T21:19:23.709Z,1.90
2022-11-04T21:21:52.956Z,1.70
2022-11-04T21:24:22.401Z,1.70
2022-11-04T21:26:52.991Z,1.48
2022-11-04T21:29:22.127Z,2.00
2022-11-04T21:31:51.180Z,2.50
2022-11-04T21:34:20.318Z,2.30
2022-11-04T21:36:53.271Z,2.10
2022-11-04T21:39:23.048Z,2.20
2022-11-04T21:41:53.444Z,2.67
2022-11-04T21:44:23.915Z,1.63
2022-11-04T21:46:53.026Z,1.70
2022-11-04T21:49:22.181Z,2.35
2022-11-04T21:51:51.259Z,2.35
2022-11-04T21:54:20.524Z,2.00
2022-11-04T21:56:53.096Z,2.25
2022-11-04T21:59:22.235Z,3.78
2022-11-04T22:01:51.399Z,5.32
2022-11-04T22:04:20.655Z,4.50
2022-11-04T22:06:49.666Z,6.88
2022-11-04T22:09:18.998Z,12.13
2022-11-04T22:11:48.157Z,19.10
2022-11-04T22:14:18.740Z,16.05
2022-11-04T22:16:47.861Z,12.82
2022-11-04T22:19:16.880Z,13.15
2022-11-04T22:21:47.241Z,13.23
2022-11-04T22:24:18.346Z,13.25
2022-11-04T22:26:47.744Z,12.70
2022-11-04T22:29:18.430Z,13.02
2022-11-04T22:31:47.444Z,12.73
2022-11-04T22:34:16.545Z,11.18
2022-11-04T22:36:45.692Z,15.20
2022-11-04T22:39:17.084Z,16.10
2022-11-04T22:41:47.425Z,12.00
2022-11-04T22:44:16.446Z,15.48
2022-11-04T22:46:46.857Z,8.48
2022-11-04T22:49:16.332Z,8.10
2022-11-04T22:51:45.425Z,4.78
2022-11-04T22:54:14.724Z,4.55
2022-11-04T22:56:43.953Z,4.18
2022-11-04T22:59:13.399Z,4.72
2022-11-04T23:01:42.612Z,5.07
2022-11-04T23:04:14.093Z,6.40
2022-11-04T23:06:43.534Z,4.57
2022-11-04T23:09:13.960Z,3.58
2022-11-04T23:12:00.586Z,2.78
2022-11-04T23:14:49.362Z,2.70
2022-11-04T23:17:38.092Z,2.80
2022-11-04T23:20:13.503Z,3.30
2022-11-04T23:23:00.102Z,3.10
2022-11-04T23:25:29.395Z,3.05
2022-11-04T23:28:16.137Z,2.53
2022-11-04T23:30:53.209Z,2.65
2022-11-04T23:33:42.925Z,2.30
2022-11-04T23:36:31.023Z,2.25
2022-11-04T23:39:00.040Z,2.22
2022-11-04T23:41:46.404Z,2.70
2022-11-04T23:44:29.377Z,2.55
2022-11-04T23:47:30.430Z,2.47
2022-11-04T23:50:16.998Z,2.22
2022-11-04T23:53:04.609Z,2.30
2022-11-04T23:55:51.136Z,2.03
2022-11-04T23:58:37.632Z,2.10
